sensor_id;sensor_type;location;lat;lon;timestamp;temperature;humidity
20045;DHT22;10183;47.808;9.476;2022-08-14T00:02:04;12.80;99.90
20045;DHT22;10183;47.808;9.476;2022-08-14T00:04:32;12.90;99.90
20045;DHT22;10183;47.808;9.476;2022-08-14T00:06:58;12.90;99.90
20045;DHT22;10183;47.808;9.476;2022-08-14T00:09:24;12.70;99.90
20045;DHT22;10183;47.808;9.476;2022-08-14T00:11:51;12.60;99.90
20045;DHT22;10183;47.808;9.476;2022-08-14T00:14:17;12.20;99.90
20045;DHT22;10183;47.808;9.476;2022-08-14T00:16:43;12.30;99.90
20045;DHT22;10183;47.808;9.476;2022-08-14T00:19:10;12.40;99.90
20045;DHT22;10183;47.808;9.476;2022-08-14T00:21:36;12.50;99.90
20045;DHT22;10183;47.808;9.476;2022-08-14T00:24:03;12.50;99.90
20045;DHT22;10183;47.808;9.476;2022-08-14T00:26:29;12.30;99.90
20045;DHT22;10183;47.808;9.476;2022-08-14T00:28:55;11.80;99.90
20045;DHT22;10183;47.808;9.476;2022-08-14T00:31:22;11.90;99.90
20045;DHT22;10183;47.808;9.476;2022-08-14T00:33:48;11.90;99.90
20045;DHT22;10183;47.808;9.476;2022-08-14T00:36:15;12.00;99.90
20045;DHT22;10183;47.808;9.476;2022-08-14T00:38:41;12.10;99.90
20045;DHT22;10183;47.808;9.476;2022-08-14T00:41:07;12.20;99.90
20045;DHT22;10183;47.808;9.476;2022-08-14T00:43:35;12.30;99.90
20045;DHT22;10183;47.808;9.476;2022-08-14T00:46:04;11.80;99.90
20045;DHT22;10183;47.808;9.476;2022-08-14T00:48:31;11.80;99.90
20045;DHT22;10183;47.808;9.476;2022-08-14T00:50:57;11.80;99.90
20045;DHT22;10183;47.808;9.476;2022-08-14T00:53:25;11.90;99.90
20045;DHT22;10183;47.808;9.476;2022-08-14T00:55:52;11.90;99.90
20045;DHT22;10183;47.808;9.476;2022-08-14T00:58:20;12.00;99.90
20045;DHT22;10183;47.808;9.476;2022-08-14T01:01:04;12.00;99.90
20045;DHT22;10183;47.808;9.476;2022-08-14T01:03:31;11.80;99.90
20045;DHT22;10183;47.808;9.476;2022-08-14T01:05:59;11.70;99.90
20045;DHT22;10183;47.808;9.476;2022-08-14T01:08:27;11.40;99.90
20045;DHT22;10183;47.808;9.476;2022-08-14T01:10:55;11.40;99.90
20045;DHT22;10183;47.808;9.476;2022-08-14T01:13:25;11.40;99.90
20045;DHT22;10183;47.808;9.476;2022-08-14T01:15:53;11.50;99.90
20045;DHT22;10183;47.808;9.476;2022-08-14T01:18:21;11.70;99.90
20045;DHT22;10183;47.808;9.476;2022-08-14T01:21:07;11.80;99.90
20045;DHT22;10183;47.808;9.476;2022-08-14T01:23:45;11.80;99.90
20045;DHT22;10183;47.808;9.476;2022-08-14T01:26:13;11.70;99.90
20045;DHT22;10183;47.808;9.476;2022-08-14T01:28:41;11.80;99.90
20045;DHT22;10183;47.808;9.476;2022-08-14T01:31:16;11.90;99.90
20045;DHT22;10183;47.808;9.476;2022-08-14T01:33:45;11.80;99.90
20045;DHT22;10183;47.808;9.476;2022-08-14T01:36:14;11.80;99.90
20045;DHT22;10183;47.808;9.476;2022-08-14T01:38:46;11.90;99.90
20045;DHT22;10183;47.808;9.476;2022-08-14T01:41:18;11.80;99.90
20045;DHT22;10183;47.808;9.476;2022-08-14T01:43:50;11.70;99.90
20045;DHT22;10183;47.808;9.476;2022-08-14T01:46:19;11.60;99.90
20045;DHT22;10183;47.808;9.476;2022-08-14T01:48:47;11.50;99.90
20045;DHT22;10183;47.808;9.476;2022-08-14T01:51:15;11.50;99.90
20045;DHT22;10183;47.808;9.476;2022-08-14T01:53:49;11.50;99.90
20045;DHT22;10183;47.808;9.476;2022-08-14T01:56:17;11.50;99.90
20045;DHT22;10183;47.808;9.476;2022-08-14T01:58:45;11.10;99.90
20045;DHT22;10183;47.808;9.476;2022-08-14T02:01:15;11.00;99.90
20045;DHT22;10183;47.808;9.476;2022-08-14T02:03:46;10.80;99.90
20045;DHT22;10183;47.808;9.476;2022-08-14T02:06:13;10.60;99.90
20045;DHT22;10183;47.808;9.476;2022-08-14T02:08:40;10.50;99.90
20045;DHT22;10183;47.808;9.476;2022-08-14T02:11:09;10.60;99.90
20045;DHT22;10183;47.808;9.476;2022-08-14T02:14:11;10.60;99.90
20045;DHT22;10183;47.808;9.476;2022-08-14T02:16:40;10.70;99.90
20045;DHT22;10183;47.808;9.476;2022-08-14T02:19:09;10.70;99.90
20045;DHT22;10183;47.808;9.476;2022-08-14T02:21:36;10.70;99.90
20045;DHT22;10183;47.808;9.476;2022-08-14T02:24:04;10.80;99.90
20045;DHT22;10183;47.808;9.476;2022-08-14T02:26:33;10.70;99.90
20045;DHT22;10183;47.808;9.476;2022-08-14T02:29:07;10.80;99.90
20045;DHT22;10183;47.808;9.476;2022-08-14T02:31:37;10.70;99.90
20045;DHT22;10183;47.808;9.476;2022-08-14T02:34:06;10.70;99.90
20045;DHT22;10183;47.808;9.476;2022-08-14T02:36:34;10.70;99.90
20045;DHT22;10183;47.808;9.476;2022-08-14T02:39:00;10.70;99.90
20045;DHT22;10183;47.808;9.476;2022-08-14T02:41:26;10.70;99.90
20045;DHT22;10183;47.808;9.476;2022-08-14T02:43:53;10.90;99.90
20045;DHT22;10183;47.808;9.476;2022-08-14T02:46:19;11.00;99.90
20045;DHT22;10183;47.808;9.476;2022-08-14T02:48:47;11.10;99.90
20045;DHT22;10183;47.808;9.476;2022-08-14T02:51:14;11.20;99.90
20045;DHT22;10183;47.808;9.476;2022-08-14T02:53:42;11.20;99.90
20045;DHT22;10183;47.808;9.476;2022-08-14T02:56:10;11.20;99.90
20045;DHT22;10183;47.808;9.476;2022-08-14T02:58:41;11.20;99.90
20045;DHT22;10183;47.808;9.476;2022-08-14T03:01:08;11.20;99.90
20045;DHT22;10183;47.808;9.476;2022-08-14T03:03:35;10.90;99.90
20045;DHT22;10183;47.808;9.476;2022-08-14T03:06:03;10.70;99.90
20045;DHT22;10183;47.808;9.476;2022-08-14T03:08:30;10.60;99.90
20045;DHT22;10183;47.808;9.476;2022-08-14T03:11:01;10.50;99.90
20045;DHT22;10183;47.808;9.476;2022-08-14T03:13:32;10.30;99.90
20045;DHT22;10183;47.808;9.476;2022-08-14T03:16:02;10.20;99.90
20045;DHT22;10183;47.808;9.476;2022-08-14T03:18:29;10.10;99.90
20045;DHT22;10183;47.808;9.476;2022-08-14T03:20:56;10.20;99.90
20045;DHT22;10183;47.808;9.476;2022-08-14T03:23:23;10.30;99.90
20045;DHT22;10183;47.808;9.476;2022-08-14T03:25:49;10.40;99.90
20045;DHT22;10183;47.808;9.476;2022-08-14T03:28:16;10.50;99.90
20045;DHT22;10183;47.808;9.476;2022-08-14T03:30:42;10.60;99.90
20045;DHT22;10183;47.808;9.476;2022-08-14T03:33:10;10.60;99.90
20045;DHT22;10183;47.808;9.476;2022-08-14T03:35:38;10.70;99.90
20045;DHT22;10183;47.808;9.476;2022-08-14T03:38:10;10.80;99.90
20045;DHT22;10183;47.808;9.476;2022-08-14T03:40:38;10.80;99.90
20045;DHT22;10183;47.808;9.476;2022-08-14T03:43:08;10.90;99.90
20045;DHT22;10183;47.808;9.476;2022-08-14T03:45:36;11.00;99.90
20045;DHT22;10183;47.808;9.476;2022-08-14T03:48:13;11.00;99.90
20045;DHT22;10183;47.808;9.476;2022-08-14T03:50:51;10.80;99.90
20045;DHT22;10183;47.808;9.476;2022-08-14T03:53:17;10.80;99.90
20045;DHT22;10183;47.808;9.476;2022-08-14T03:55:45;10.90;99.90
20045;DHT22;10183;47.808;9.476;2022-08-14T03:58:12;11.00;99.90
20045;DHT22;10183;47.808;9.476;2022-08-14T04:00:40;10.80;99.90
20045;DHT22;10183;47.808;9.476;2022-08-14T04:03:09;10.60;99.90
20045;DHT22;10183;47.808;9.476;2022-08-14T04:05:36;10.50;99.90
20045;DHT22;10183;47.808;9.476;2022-08-14T04:08:04;10.40;99.90
20045;DHT22;10183;47.808;9.476;2022-08-14T04:10:30;10.10;99.90
20045;DHT22;10183;47.808;9.476;2022-08-14T04:12:56;9.90;99.90
20045;DHT22;10183;47.808;9.476;2022-08-14T04:15:26;9.80;99.90
20045;DHT22;10183;47.808;9.476;2022-08-14T04:17:53;9.80;99.90
20045;DHT22;10183;47.808;9.476;2022-08-14T04:20:20;9.90;99.90
20045;DHT22;10183;47.808;9.476;2022-08-14T04:22:47;9.90;99.90
20045;DHT22;10183;47.808;9.476;2022-08-14T04:25:16;10.00;99.90
20045;DHT22;10183;47.808;9.476;2022-08-14T04:27:43;9.90;99.90
20045;DHT22;10183;47.808;9.476;2022-08-14T04:30:10;9.90;99.90
20045;DHT22;10183;47.808;9.476;2022-08-14T04:32:37;10.00;99.90
20045;DHT22;10183;47.808;9.476;2022-08-14T04:35:03;10.00;99.90
20045;DHT22;10183;47.808;9.476;2022-08-14T04:37:29;10.20;99.90
20045;DHT22;10183;47.808;9.476;2022-08-14T04:40:14;10.30;99.90
20045;DHT22;10183;47.808;9.476;2022-08-14T04:42:59;10.30;99.90
20045;DHT22;10183;47.808;9.476;2022-08-14T04:45:44;10.30;99.90
20045;DHT22;10183;47.808;9.476;2022-08-14T04:48:15;10.40;99.90
20045;DHT22;10183;47.808;9.476;2022-08-14T04:50:49;10.50;99.90
20045;DHT22;10183;47.808;9.476;2022-08-14T04:53:22;10.50;99.90
20045;DHT22;10183;47.808;9.476;2022-08-14T04:55:49;10.50;99.90
20045;DHT22;10183;47.808;9.476;2022-08-14T04:58:18;10.50;99.90
20045;DHT22;10183;47.808;9.476;2022-08-14T05:00:46;10.60;99.90
20045;DHT22;10183;47.808;9.476;2022-08-14T05:03:17;10.60;99.90
20045;DHT22;10183;47.808;9.476;2022-08-14T05:05:49;10.50;99.90
20045;DHT22;10183;47.808;9.476;2022-08-14T05:08:16;10.40;99.90
20045;DHT22;10183;47.808;9.476;2022-08-14T05:10:49;10.50;99.90
20045;DHT22;10183;47.808;9.476;2022-08-14T05:13:19;10.60;99.90
20045;DHT22;10183;47.808;9.476;2022-08-14T05:15:46;10.80;99.90
20045;DHT22;10183;47.808;9.476;2022-08-14T05:18:15;10.90;99.90
20045;DHT22;10183;47.808;9.476;2022-08-14T05:20:43;10.90;99.90
20045;DHT22;10183;47.808;9.476;2022-08-14T05:23:16;11.00;99.90
20045;DHT22;10183;47.808;9.476;2022-08-14T05:25:43;11.20;99.90
20045;DHT22;10183;47.808;9.476;2022-08-14T05:28:12;11.30;99.90
20045;DHT22;10183;47.808;9.476;2022-08-14T05:30:45;11.40;99.90
20045;DHT22;10183;47.808;9.476;2022-08-14T05:33:13;11.50;99.90
20045;DHT22;10183;47.808;9.476;2022-08-14T05:35:40;11.60;99.90
20045;DHT22;10183;47.808;9.476;2022-08-14T05:38:07;11.70;99.90
20045;DHT22;10183;47.808;9.476;2022-08-14T05:40:34;11.90;99.90
20045;DHT22;10183;47.808;9.476;2022-08-14T05:43:01;11.90;99.90
20045;DHT22;10183;47.808;9.476;2022-08-14T05:45:27;11.60;99.90
20045;DHT22;10183;47.808;9.476;2022-08-14T05:47:54;11.70;99.90
20045;DHT22;10183;47.808;9.476;2022-08-14T05:50:20;11.80;99.90
20045;DHT22;10183;47.808;9.476;2022-08-14T05:52:47;12.10;99.90
20045;DHT22;10183;47.808;9.476;2022-08-14T05:55:15;12.30;99.90
20045;DHT22;10183;47.808;9.476;2022-08-14T06:00:22;12.50;99.90
20045;DHT22;10183;47.808;9.476;2022-08-14T06:02:48;12.60;99.90
20045;DHT22;10183;47.808;9.476;2022-08-14T06:05:15;12.70;99.90
20045;DHT22;10183;47.808;9.476;2022-08-14T06:07:41;12.80;99.90
20045;DHT22;10183;47.808;9.476;2022-08-14T06:10:08;12.90;99.90
20045;DHT22;10183;47.808;9.476;2022-08-14T06:12:36;13.10;99.90
20045;DHT22;10183;47.808;9.476;2022-08-14T06:15:04;13.20;99.90
20045;DHT22;10183;47.808;9.476;2022-08-14T06:17:31;13.30;99.90
20045;DHT22;10183;47.808;9.476;2022-08-14T06:19:57;13.40;99.90
20045;DHT22;10183;47.808;9.476;2022-08-14T06:22:23;13.60;99.90
20045;DHT22;10183;47.808;9.476;2022-08-14T06:24:49;13.80;99.90
20045;DHT22;10183;47.808;9.476;2022-08-14T06:27:16;13.90;99.90
20045;DHT22;10183;47.808;9.476;2022-08-14T06:29:42;14.00;99.90
20045;DHT22;10183;47.808;9.476;2022-08-14T06:32:08;14.10;99.90
20045;DHT22;10183;47.808;9.476;2022-08-14T06:34:35;14.20;99.90
20045;DHT22;10183;47.808;9.476;2022-08-14T06:37:04;14.30;99.90
20045;DHT22;10183;47.808;9.476;2022-08-14T06:39:30;14.50;99.90
20045;DHT22;10183;47.808;9.476;2022-08-14T06:41:59;14.60;99.90
20045;DHT22;10183;47.808;9.476;2022-08-14T06:44:28;14.70;99.90
20045;DHT22;10183;47.808;9.476;2022-08-14T06:46:55;14.80;99.90
20045;DHT22;10183;47.808;9.476;2022-08-14T06:49:21;14.90;99.90
20045;DHT22;10183;47.808;9.476;2022-08-14T06:51:50;15.10;99.90
20045;DHT22;10183;47.808;9.476;2022-08-14T06:54:16;15.20;99.90
20045;DHT22;10183;47.808;9.476;2022-08-14T06:56:42;15.50;99.90
20045;DHT22;10183;47.808;9.476;2022-08-14T06:59:08;15.60;99.90
20045;DHT22;10183;47.808;9.476;2022-08-14T07:01:34;15.80;99.90
20045;DHT22;10183;47.808;9.476;2022-08-14T07:04:19;16.00;99.90
20045;DHT22;10183;47.808;9.476;2022-08-14T07:07:04;16.30;99.90
20045;DHT22;10183;47.808;9.476;2022-08-14T07:09:30;16.50;99.90
20045;DHT22;10183;47.808;9.476;2022-08-14T07:11:56;16.60;99.90
20045;DHT22;10183;47.808;9.476;2022-08-14T07:14:22;16.70;99.90
20045;DHT22;10183;47.808;9.476;2022-08-14T07:16:49;16.90;99.90
20045;DHT22;10183;47.808;9.476;2022-08-14T07:19:16;17.10;99.90
20045;DHT22;10183;47.808;9.476;2022-08-14T07:21:43;17.30;99.90
20045;DHT22;10183;47.808;9.476;2022-08-14T07:24:09;17.40;99.90
20045;DHT22;10183;47.808;9.476;2022-08-14T07:26:35;17.40;99.90
20045;DHT22;10183;47.808;9.476;2022-08-14T07:29:01;17.70;99.90
20045;DHT22;10183;47.808;9.476;2022-08-14T07:31:27;18.00;99.90
20045;DHT22;10183;47.808;9.476;2022-08-14T07:33:53;18.20;99.90
20045;DHT22;10183;47.808;9.476;2022-08-14T07:36:20;18.50;99.90
20045;DHT22;10183;47.808;9.476;2022-08-14T07:38:46;18.50;99.90
20045;DHT22;10183;47.808;9.476;2022-08-14T07:41:12;18.30;99.90
20045;DHT22;10183;47.808;9.476;2022-08-14T07:43:40;18.40;99.90
20045;DHT22;10183;47.808;9.476;2022-08-14T07:46:06;18.60;99.90
20045;DHT22;10183;47.808;9.476;2022-08-14T07:48:37;18.80;99.90
20045;DHT22;10183;47.808;9.476;2022-08-14T07:51:05;19.00;99.90
20045;DHT22;10183;47.808;9.476;2022-08-14T07:53:31;19.20;99.90
20045;DHT22;10183;47.808;9.476;2022-08-14T07:55:58;19.40;99.90
20045;DHT22;10183;47.808;9.476;2022-08-14T07:58:24;19.50;99.90
20045;DHT22;10183;47.808;9.476;2022-08-14T08:00:54;19.70;99.90
20045;DHT22;10183;47.808;9.476;2022-08-14T08:03:22;20.10;99.90
20045;DHT22;10183;47.808;9.476;2022-08-14T08:05:49;20.50;99.90
20045;DHT22;10183;47.808;9.476;2022-08-14T08:08:16;20.60;99.90
20045;DHT22;10183;47.808;9.476;2022-08-14T08:10:43;20.60;99.90
20045;DHT22;10183;47.808;9.476;2022-08-14T08:13:15;20.70;99.90
20045;DHT22;10183;47.808;9.476;2022-08-14T08:15:46;20.70;99.90
20045;DHT22;10183;47.808;9.476;2022-08-14T08:18:14;20.50;99.90
20045;DHT22;10183;47.808;9.476;2022-08-14T08:20:49;20.50;99.90
20045;DHT22;10183;47.808;9.476;2022-08-14T08:23:16;20.70;99.90
20045;DHT22;10183;47.808;9.476;2022-08-14T08:25:46;20.70;99.90
20045;DHT22;10183;47.808;9.476;2022-08-14T08:28:18;20.80;99.90
20045;DHT22;10183;47.808;9.476;2022-08-14T08:30:50;20.60;99.90
20045;DHT22;10183;47.808;9.476;2022-08-14T08:33:22;20.20;99.90
20045;DHT22;10183;47.808;9.476;2022-08-14T08:35:49;20.10;99.90
20045;DHT22;10183;47.808;9.476;2022-08-14T08:38:17;20.30;99.90
20045;DHT22;10183;47.808;9.476;2022-08-14T08:40:45;20.50;99.90
20045;DHT22;10183;47.808;9.476;2022-08-14T08:48:19;20.90;99.90
20045;DHT22;10183;47.808;9.476;2022-08-14T08:50:45;21.20;99.90
20045;DHT22;10183;47.808;9.476;2022-08-14T08:53:12;21.20;99.90
20045;DHT22;10183;47.808;9.476;2022-08-14T08:55:41;21.40;99.90
20045;DHT22;10183;47.808;9.476;2022-08-14T08:58:13;21.70;99.90
20045;DHT22;10183;47.808;9.476;2022-08-14T09:00:41;22.00;99.90
20045;DHT22;10183;47.808;9.476;2022-08-14T09:03:10;22.20;99.90
20045;DHT22;10183;47.808;9.476;2022-08-14T09:05:47;22.60;99.90
20045;DHT22;10183;47.808;9.476;2022-08-14T09:08:19;22.80;99.90
20045;DHT22;10183;47.808;9.476;2022-08-14T09:10:46;23.00;99.90
20045;DHT22;10183;47.808;9.476;2022-08-14T09:13:14;23.30;99.90
20045;DHT22;10183;47.808;9.476;2022-08-14T09:15:42;23.10;99.90
20045;DHT22;10183;47.808;9.476;2022-08-14T09:18:11;23.00;99.90
20045;DHT22;10183;47.808;9.476;2022-08-14T09:20:38;23.40;99.90
20045;DHT22;10183;47.808;9.476;2022-08-14T09:23:07;23.60;99.90
20045;DHT22;10183;47.808;9.476;2022-08-14T09:25:36;23.40;99.90
20045;DHT22;10183;47.808;9.476;2022-08-14T09:28:03;23.50;99.90
20045;DHT22;10183;47.808;9.476;2022-08-14T09:30:33;23.80;99.90
20045;DHT22;10183;47.808;9.476;2022-08-14T09:35:59;23.80;99.90
20045;DHT22;10183;47.808;9.476;2022-08-14T09:43:58;24.20;99.90
20045;DHT22;10183;47.808;9.476;2022-08-14T09:46:25;23.50;99.90
20045;DHT22;10183;47.808;9.476;2022-08-14T09:49:04;23.50;99.90
20045;DHT22;10183;47.808;9.476;2022-08-14T09:51:31;23.90;99.90
20045;DHT22;10183;47.808;9.476;2022-08-14T09:54:04;23.60;99.90
20045;DHT22;10183;47.808;9.476;2022-08-14T09:56:45;23.70;98.70
20045;DHT22;10183;47.808;9.476;2022-08-14T09:59:13;24.00;99.90
20045;DHT22;10183;47.808;9.476;2022-08-14T10:01:40;24.60;99.90
20045;DHT22;10183;47.808;9.476;2022-08-14T10:04:17;25.20;99.90
20045;DHT22;10183;47.808;9.476;2022-08-14T10:06:45;25.60;99.90
20045;DHT22;10183;47.808;9.476;2022-08-14T10:09:12;25.70;98.70
20045;DHT22;10183;47.808;9.476;2022-08-14T10:11:39;26.10;96.30
20045;DHT22;10183;47.808;9.476;2022-08-14T10:14:14;26.20;94.40
20045;DHT22;10183;47.808;9.476;2022-08-14T10:16:45;24.80;93.70
20045;DHT22;10183;47.808;9.476;2022-08-14T10:19:14;24.60;95.20
20045;DHT22;10183;47.808;9.476;2022-08-14T10:21:44;25.00;94.80
20045;DHT22;10183;47.808;9.476;2022-08-14T10:24:31;25.40;96.30
20045;DHT22;10183;47.808;9.476;2022-08-14T10:26:59;25.80;92.90
20045;DHT22;10183;47.808;9.476;2022-08-14T10:29:34;26.30;91.70
20045;DHT22;10183;47.808;9.476;2022-08-14T10:32:00;26.70;90.30
20045;DHT22;10183;47.808;9.476;2022-08-14T10:34:36;26.70;92.10
20045;DHT22;10183;47.808;9.476;2022-08-14T10:37:07;25.80;89.10
20045;DHT22;10183;47.808;9.476;2022-08-14T10:39:37;26.20;85.50
20045;DHT22;10183;47.808;9.476;2022-08-14T10:42:09;26.80;82.00
20045;DHT22;10183;47.808;9.476;2022-08-14T10:44:38;25.30;82.60
20045;DHT22;10183;47.808;9.476;2022-08-14T10:47:08;25.90;86.60
20045;DHT22;10183;47.808;9.476;2022-08-14T10:49:37;26.40;90.50
20045;DHT22;10183;47.808;9.476;2022-08-14T10:52:06;26.60;76.40
20045;DHT22;10183;47.808;9.476;2022-08-14T10:54:41;26.00;80.80
20045;DHT22;10183;47.808;9.476;2022-08-14T10:57:13;25.70;78.80
20045;DHT22;10183;47.808;9.476;2022-08-14T10:59:44;25.40;81.00
20045;DHT22;10183;47.808;9.476;2022-08-14T11:07:34;27.00;88.60
20045;DHT22;10183;47.808;9.476;2022-08-14T11:10:11;27.50;76.50
20045;DHT22;10183;47.808;9.476;2022-08-14T11:12:46;26.70;80.70
20045;DHT22;10183;47.808;9.476;2022-08-14T11:15:15;26.80;78.00
20045;DHT22;10183;47.808;9.476;2022-08-14T11:17:42;26.40;75.30
20045;DHT22;10183;47.808;9.476;2022-08-14T11:20:16;27.20;80.20
20045;DHT22;10183;47.808;9.476;2022-08-14T11:22:45;27.50;71.50
20045;DHT22;10183;47.808;9.476;2022-08-14T11:25:13;27.40;73.90
20045;DHT22;10183;47.808;9.476;2022-08-14T11:27:42;28.00;67.30
20045;DHT22;10183;47.808;9.476;2022-08-14T11:30:12;28.20;82.50
20045;DHT22;10183;47.808;9.476;2022-08-14T11:32:49;27.40;70.00
20045;DHT22;10183;47.808;9.476;2022-08-14T11:35:22;27.20;78.80
20045;DHT22;10183;47.808;9.476;2022-08-14T11:37:57;27.70;72.50
20045;DHT22;10183;47.808;9.476;2022-08-14T11:40:33;26.90;74.50
20045;DHT22;10183;47.808;9.476;2022-08-14T11:43:06;28.00;72.20
20045;DHT22;10183;47.808;9.476;2022-08-14T11:45:36;28.70;72.50
20045;DHT22;10183;47.808;9.476;2022-08-14T11:48:24;29.70;71.90
20045;DHT22;10183;47.808;9.476;2022-08-14T11:50:51;29.70;67.20
20045;DHT22;10183;47.808;9.476;2022-08-14T11:53:23;28.80;68.50
20045;DHT22;10183;47.808;9.476;2022-08-14T11:56:01;28.60;68.50
20045;DHT22;10183;47.808;9.476;2022-08-14T11:58:32;29.00;62.80
20045;DHT22;10183;47.808;9.476;2022-08-14T12:01:04;28.30;63.10
20045;DHT22;10183;47.808;9.476;2022-08-14T12:03:45;28.60;62.90
20045;DHT22;10183;47.808;9.476;2022-08-14T12:06:17;28.10;64.00
20045;DHT22;10183;47.808;9.476;2022-08-14T12:08:44;27.50;61.80
20045;DHT22;10183;47.808;9.476;2022-08-14T12:11:19;28.00;67.90
20045;DHT22;10183;47.808;9.476;2022-08-14T12:13:46;27.90;70.90
20045;DHT22;10183;47.808;9.476;2022-08-14T12:16:13;27.20;62.20
20045;DHT22;10183;47.808;9.476;2022-08-14T12:18:47;27.60;63.70
20045;DHT22;10183;47.808;9.476;2022-08-14T12:21:21;27.30;61.70
20045;DHT22;10183;47.808;9.476;2022-08-14T12:24:07;27.10;66.10
20045;DHT22;10183;47.808;9.476;2022-08-14T12:26:33;27.30;62.20
20045;DHT22;10183;47.808;9.476;2022-08-14T12:29:06;27.20;59.20
20045;DHT22;10183;47.808;9.476;2022-08-14T12:31:34;27.80;64.90
20045;DHT22;10183;47.808;9.476;2022-08-14T12:34:03;28.70;64.50
20045;DHT22;10183;47.808;9.476;2022-08-14T12:36:30;28.90;64.80
20045;DHT22;10183;47.808;9.476;2022-08-14T12:39:03;28.50;63.50
20045;DHT22;10183;47.808;9.476;2022-08-14T12:41:32;28.40;68.80
20045;DHT22;10183;47.808;9.476;2022-08-14T12:44:03;28.30;63.90
20045;DHT22;10183;47.808;9.476;2022-08-14T12:46:37;28.00;61.00
20045;DHT22;10183;47.808;9.476;2022-08-14T12:49:14;28.60;68.50
20045;DHT22;10183;47.808;9.476;2022-08-14T12:51:43;28.00;60.70
20045;DHT22;10183;47.808;9.476;2022-08-14T12:54:19;27.60;62.60
20045;DHT22;10183;47.808;9.476;2022-08-14T12:56:49;27.90;70.30
20045;DHT22;10183;47.808;9.476;2022-08-14T12:59:16;27.90;68.30
20045;DHT22;10183;47.808;9.476;2022-08-14T13:01:44;28.10;67.80
20045;DHT22;10183;47.808;9.476;2022-08-14T13:04:13;27.60;68.60
20045;DHT22;10183;47.808;9.476;2022-08-14T13:06:41;27.90;74.70
20045;DHT22;10183;47.808;9.476;2022-08-14T13:09:10;28.30;73.20
20045;DHT22;10183;47.808;9.476;2022-08-14T13:11:44;27.70;74.60
20045;DHT22;10183;47.808;9.476;2022-08-14T13:14:12;27.20;70.60
20045;DHT22;10183;47.808;9.476;2022-08-14T13:16:39;27.00;68.60
20045;DHT22;10183;47.808;9.476;2022-08-14T13:19:10;27.20;74.50
20045;DHT22;10183;47.808;9.476;2022-08-14T13:21:44;27.50;71.10
20045;DHT22;10183;47.808;9.476;2022-08-14T13:24:12;27.00;68.90
20045;DHT22;10183;47.808;9.476;2022-08-14T13:26:45;26.90;75.40
20045;DHT22;10183;47.808;9.476;2022-08-14T13:29:13;26.90;68.90
20045;DHT22;10183;47.808;9.476;2022-08-14T13:31:43;26.60;68.40
20045;DHT22;10183;47.808;9.476;2022-08-14T13:34:12;27.70;69.80
20045;DHT22;10183;47.808;9.476;2022-08-14T13:36:39;26.90;64.30
20045;DHT22;10183;47.808;9.476;2022-08-14T13:39:06;26.20;68.90
20045;DHT22;10183;47.808;9.476;2022-08-14T13:41:33;26.00;71.90
20045;DHT22;10183;47.808;9.476;2022-08-14T13:44:00;25.80;71.40
20045;DHT22;10183;47.808;9.476;2022-08-14T13:46:26;25.80;72.50
20045;DHT22;10183;47.808;9.476;2022-08-14T13:48:53;26.20;72.30
20045;DHT22;10183;47.808;9.476;2022-08-14T13:51:22;26.00;71.60
20045;DHT22;10183;47.808;9.476;2022-08-14T13:53:55;26.00;74.70
20045;DHT22;10183;47.808;9.476;2022-08-14T13:56:26;25.80;70.10
20045;DHT22;10183;47.808;9.476;2022-08-14T13:58:56;25.80;67.20
20045;DHT22;10183;47.808;9.476;2022-08-14T14:01:26;25.70;68.00
20045;DHT22;10183;47.808;9.476;2022-08-14T14:03:56;26.00;73.80
20045;DHT22;10183;47.808;9.476;2022-08-14T14:06:25;26.20;71.90
20045;DHT22;10183;47.808;9.476;2022-08-14T14:08:54;26.20;70.10
20045;DHT22;10183;47.808;9.476;2022-08-14T14:11:20;26.10;74.70
20045;DHT22;10183;47.808;9.476;2022-08-14T14:13:54;26.00;73.00
20045;DHT22;10183;47.808;9.476;2022-08-14T14:16:21;26.50;74.10
20045;DHT22;10183;47.808;9.476;2022-08-14T14:18:50;26.60;77.60
20045;DHT22;10183;47.808;9.476;2022-08-14T14:21:22;26.70;71.60
20045;DHT22;10183;47.808;9.476;2022-08-14T14:23:49;26.10;73.10
20045;DHT22;10183;47.808;9.476;2022-08-14T14:26:17;26.20;78.80
20045;DHT22;10183;47.808;9.476;2022-08-14T14:28:47;26.30;75.10
20045;DHT22;10183;47.808;9.476;2022-08-14T14:31:20;26.20;78.20
20045;DHT22;10183;47.808;9.476;2022-08-14T14:33:51;26.50;83.40
20045;DHT22;10183;47.808;9.476;2022-08-14T14:36:29;26.20;80.20
20045;DHT22;10183;47.808;9.476;2022-08-14T14:39:06;26.00;81.60
20045;DHT22;10183;47.808;9.476;2022-08-14T14:41:36;26.00;84.50
20045;DHT22;10183;47.808;9.476;2022-08-14T14:44:07;25.60;82.90
20045;DHT22;10183;47.808;9.476;2022-08-14T14:46:36;25.40;81.90
20045;DHT22;10183;47.808;9.476;2022-08-14T14:49:05;25.50;79.70
20045;DHT22;10183;47.808;9.476;2022-08-14T14:51:31;25.60;79.50
20045;DHT22;10183;47.808;9.476;2022-08-14T14:53:58;25.40;78.80
20045;DHT22;10183;47.808;9.476;2022-08-14T14:56:28;25.40;79.40
20045;DHT22;10183;47.808;9.476;2022-08-14T14:58:54;25.20;79.80
20045;DHT22;10183;47.808;9.476;2022-08-14T15:01:20;25.20;79.50
20045;DHT22;10183;47.808;9.476;2022-08-14T15:03:49;25.20;83.60
20045;DHT22;10183;47.808;9.476;2022-08-14T15:06:23;25.40;83.60
20045;DHT22;10183;47.808;9.476;2022-08-14T15:08:50;25.50;90.50
20045;DHT22;10183;47.808;9.476;2022-08-14T15:11:18;25.10;84.80
20045;DHT22;10183;47.808;9.476;2022-08-14T15:13:45;25.10;84.60
20045;DHT22;10183;47.808;9.476;2022-08-14T15:16:11;25.10;88.50
20045;DHT22;10183;47.808;9.476;2022-08-14T15:18:38;25.40;92.40
20045;DHT22;10183;47.808;9.476;2022-08-14T15:21:05;25.40;92.20
20045;DHT22;10183;47.808;9.476;2022-08-14T15:23:33;25.40;90.10
20045;DHT22;10183;47.808;9.476;2022-08-14T15:25:59;25.10;89.10
20045;DHT22;10183;47.808;9.476;2022-08-14T15:28:26;25.00;91.30
20045;DHT22;10183;47.808;9.476;2022-08-14T15:30:53;25.10;91.10
20045;DHT22;10183;47.808;9.476;2022-08-14T15:33:20;25.10;92.30
20045;DHT22;10183;47.808;9.476;2022-08-14T15:36:07;25.40;93.10
20045;DHT22;10183;47.808;9.476;2022-08-14T15:38:33;25.80;92.70
20045;DHT22;10183;47.808;9.476;2022-08-14T15:40:59;26.40;91.40
20045;DHT22;10183;47.808;9.476;2022-08-14T15:43:33;26.70;90.00
20045;DHT22;10183;47.808;9.476;2022-08-14T15:46:01;26.90;91.20
20045;DHT22;10183;47.808;9.476;2022-08-14T15:48:28;27.00;90.00
20045;DHT22;10183;47.808;9.476;2022-08-14T15:50:55;26.70;86.30
20045;DHT22;10183;47.808;9.476;2022-08-14T15:53:22;26.50;87.90
20045;DHT22;10183;47.808;9.476;2022-08-14T15:55:54;26.20;89.50
20045;DHT22;10183;47.808;9.476;2022-08-14T15:58:22;26.50;91.70
20045;DHT22;10183;47.808;9.476;2022-08-14T16:00:49;27.10;88.90
20045;DHT22;10183;47.808;9.476;2022-08-14T16:03:35;26.80;84.50
20045;DHT22;10183;47.808;9.476;2022-08-14T16:06:07;27.00;87.20